createdAt,value
2018-06-17T00:00:31.720Z,14.00
2018-06-17T00:02:59.676Z,14.00
2018-06-17T00:05:27.665Z,14.00
2018-06-17T00:07:55.683Z,14.00
2018-06-17T00:10:23.654Z,13.90
2018-06-17T00:12:51.690Z,13.90
2018-06-17T00:15:19.604Z,13.90
2018-06-17T00:17:47.430Z,14.00
2018-06-17T00:20:15.354Z,14.00
2018-06-17T00:22:43.107Z,14.00
2018-06-17T00:25:10.920Z,14.00
2018-06-17T00:27:38.688Z,14.00
2018-06-17T00:30:06.493Z,13.90
2018-06-17T00:32:34.271Z,13.90
2018-06-17T00:35:02.144Z,13.90
2018-06-17T00:37:29.932Z,13.90
2018-06-17T00:39:57.771Z,13.80
2018-06-17T00:42:25.520Z,13.80
2018-06-17T00:44:53.385Z,13.80
2018-06-17T00:47:21.372Z,13.90
2018-06-17T00:49:49.122Z,13.90
2018-06-17T00:52:16.989Z,14.00
2018-06-17T00:54:44.771Z,14.00
2018-06-17T00:57:23.845Z,14.00
2018-06-17T00:59:51.592Z,14.00
2018-06-17T01:02:19.408Z,14.00
2018-06-17T01:04:47.190Z,14.00
2018-06-17T01:07:14.949Z,14.00
2018-06-17T01:09:42.837Z,13.90
2018-06-17T01:12:10.655Z,13.90
2018-06-17T01:14:38.374Z,13.80
2018-06-17T01:17:06.143Z,13.80
2018-06-17T01:19:33.901Z,13.80
2018-06-17T01:22:03.548Z,13.80
2018-06-17T01:24:31.634Z,13.90
2018-06-17T01:26:59.640Z,14.00
2018-06-17T01:29:27.707Z,14.10
2018-06-17T01:32:03.509Z,14.20
2018-06-17T01:34:35.103Z,14.20
2018-06-17T01:37:03.159Z,14.10
2018-06-17T01:39:31.193Z,14.00
2018-06-17T01:41:59.225Z,13.80
2018-06-17T01:44:27.154Z,13.80
2018-06-17T01:46:55.277Z,13.70
2018-06-17T01:49:23.169Z,13.70
2018-06-17T01:51:51.186Z,13.60
2018-06-17T01:54:19.109Z,13.60
2018-06-17T01:56:49.068Z,13.60
2018-06-17T01:59:17.016Z,13.60
2018-06-17T02:01:45.056Z,13.60
2018-06-17T02:04:18.520Z,13.50
2018-06-17T02:06:51.894Z,13.50
2018-06-17T02:09:25.372Z,13.50
2018-06-17T02:12:00.882Z,13.40
2018-06-17T02:14:36.282Z,13.40
2018-06-17T02:17:06.249Z,13.40
2018-06-17T02:19:34.205Z,13.50
2018-06-17T02:22:06.429Z,13.60
2018-06-17T02:24:36.715Z,13.70
2018-06-17T02:27:04.711Z,13.80
2018-06-17T02:29:32.709Z,13.80
2018-06-17T02:32:00.607Z,13.80
2018-06-17T02:34:28.640Z,13.70
2018-06-17T02:36:56.650Z,13.70
2018-06-17T02:39:24.715Z,13.70
2018-06-17T02:41:59.984Z,13.70
2018-06-17T02:44:28.112Z,13.70
2018-06-17T02:47:01.603Z,13.60
2018-06-17T02:49:37.422Z,13.50
2018-06-17T02:52:11.837Z,13.60
2018-06-17T02:54:41.071Z,13.50
2018-06-17T02:57:10.440Z,13.50
2018-06-17T02:59:38.826Z,13.50
2018-06-17T03:02:06.877Z,13.40
2018-06-17T03:04:34.967Z,13.40
2018-06-17T03:07:02.984Z,13.40
2018-06-17T03:09:32.087Z,13.30
2018-06-17T03:12:00.142Z,13.30
2018-06-17T03:14:29.257Z,13.30
2018-06-17T03:16:57.213Z,13.30
2018-06-17T03:19:25.297Z,13.30
2018-06-17T03:21:53.270Z,13.20
2018-06-17T03:24:28.039Z,13.20
2018-06-17T03:27:01.567Z,13.10
2018-06-17T03:29:35.093Z,13.10
2018-06-17T03:32:08.675Z,13.10
2018-06-17T03:34:37.741Z,13.20
2018-06-17T03:37:05.767Z,13.20
2018-06-17T03:39:33.605Z,13.30
2018-06-17T03:44:35.235Z,13.50
2018-06-17T03:47:03.126Z,13.50
2018-06-17T03:49:30.894Z,13.70
2018-06-17T03:51:58.704Z,13.70
2018-06-17T03:54:26.444Z,13.70
2018-06-17T03:56:54.195Z,13.70
2018-06-17T03:59:21.983Z,13.70
2018-06-17T04:01:49.883Z,13.80
2018-06-17T04:04:18.086Z,13.80
2018-06-17T04:06:46.262Z,13.80
2018-06-17T04:09:14.209Z,13.80
2018-06-17T04:11:42.194Z,13.90
2018-06-17T04:14:10.070Z,13.90
2018-06-17T04:16:38.019Z,13.90
2018-06-17T04:19:05.973Z,13.90
2018-06-17T04:21:33.957Z,14.00
2018-06-17T04:24:01.875Z,14.00
2018-06-17T04:26:29.895Z,14.00
2018-06-17T04:28:57.801Z,14.00
2018-06-17T04:31:25.826Z,14.10
2018-06-17T04:33:53.768Z,14.10
2018-06-17T04:36:24.934Z,14.20
2018-06-17T04:38:52.875Z,14.20
2018-06-17T04:41:20.882Z,14.30
2018-06-17T04:43:48.787Z,14.20
2018-06-17T04:46:16.820Z,14.30
2018-06-17T04:48:44.791Z,14.40
2018-06-17T04:51:12.717Z,14.40
2018-06-17T04:53:40.639Z,14.50
2018-06-17T04:56:12.280Z,14.50
2018-06-17T04:58:40.300Z,14.60
2018-06-17T05:01:17.081Z,14.60
2018-06-17T05:03:44.881Z,14.70
2018-06-17T05:06:12.753Z,14.80
2018-06-17T05:08:40.780Z,14.80
2018-06-17T05:11:08.830Z,14.80
2018-06-17T05:16:04.630Z,14.90
2018-06-17T05:18:32.445Z,14.90
2018-06-17T05:21:00.212Z,15.00
2018-06-17T05:23:27.987Z,15.00
2018-06-17T05:25:55.797Z,15.00
2018-06-17T05:28:23.727Z,15.00
2018-06-17T05:30:51.540Z,15.00
2018-06-17T05:33:19.466Z,15.00
2018-06-17T05:35:47.263Z,15.10
2018-06-17T05:38:15.074Z,15.10
2018-06-17T05:40:44.022Z,15.20
2018-06-17T05:43:11.879Z,15.20
2018-06-17T05:45:39.729Z,15.30
2018-06-17T05:48:07.609Z,15.30
2018-06-17T05:50:35.254Z,15.40
2018-06-17T05:53:03.221Z,15.50
2018-06-17T05:55:31.018Z,15.60
2018-06-17T05:57:58.823Z,15.70
2018-06-17T06:00:26.635Z,15.70
2018-06-17T06:02:54.456Z,15.70
2018-06-17T06:05:22.242Z,15.70
2018-06-17T06:07:50.039Z,15.80
2018-06-17T06:10:17.851Z,15.80
2018-06-17T06:12:45.719Z,15.90
2018-06-17T06:15:13.588Z,15.80
2018-06-17T06:17:41.403Z,15.90
2018-06-17T06:20:10.085Z,15.90
2018-06-17T06:22:38.059Z,15.90
2018-06-17T06:25:05.871Z,16.20
2018-06-17T06:27:33.836Z,16.30
2018-06-17T06:30:01.720Z,16.40
2018-06-17T06:32:29.724Z,16.50
2018-06-17T06:34:57.693Z,16.50
2018-06-17T06:37:25.517Z,16.40
2018-06-17T06:39:53.313Z,16.50
2018-06-17T06:42:21.085Z,16.50
2018-06-17T06:44:48.920Z,16.60
2018-06-17T06:47:16.681Z,16.60
2018-06-17T06:49:44.537Z,16.50
2018-06-17T06:52:12.343Z,16.50
2018-06-17T06:54:40.208Z,16.70
2018-06-17T06:57:07.986Z,16.90
2018-06-17T06:59:35.768Z,17.10
2018-06-17T07:02:14.859Z,17.30
2018-06-17T07:04:54.020Z,17.50
2018-06-17T07:07:33.148Z,17.50
2018-06-17T07:10:12.297Z,17.40
2018-06-17T07:12:40.150Z,17.50
2018-06-17T07:15:07.977Z,17.60
2018-06-17T07:17:47.113Z,17.70
2018-06-17T07:20:14.912Z,17.80
2018-06-17T07:22:42.772Z,17.70
2018-06-17T07:25:18.696Z,17.60
2018-06-17T07:27:58.551Z,17.50
2018-06-17T07:30:26.312Z,17.50
2018-06-17T07:32:54.257Z,17.80
2018-06-17T07:35:22.198Z,17.90
2018-06-17T07:37:55.216Z,17.90
2018-06-17T07:40:46.176Z,17.80
2018-06-17T07:43:19.387Z,17.90
2018-06-17T07:45:47.431Z,18.10
2018-06-17T07:48:26.515Z,17.90
2018-06-17T07:51:05.648Z,17.80
2018-06-17T07:53:33.564Z,17.40
2018-06-17T07:56:01.630Z,17.30
2018-06-17T07:58:33.319Z,17.40
2018-06-17T08:01:01.204Z,17.50
2018-06-17T08:03:29.052Z,17.50
2018-06-17T08:05:56.820Z,17.50
2018-06-17T08:08:24.684Z,17.50
2018-06-17T08:10:52.591Z,17.40
2018-06-17T08:13:20.389Z,17.50
2018-06-17T08:15:48.152Z,17.60
2018-06-17T08:18:15.950Z,18.10
2018-06-17T08:20:43.828Z,18.20
2018-06-17T08:23:11.626Z,18.40
2018-06-17T08:25:39.412Z,18.70
2018-06-17T08:28:07.250Z,18.80
2018-06-17T08:30:35.118Z,19.10
2018-06-17T08:33:02.922Z,19.40
2018-06-17T08:35:31.878Z,19.50
2018-06-17T08:37:59.682Z,19.20
2018-06-17T08:40:27.612Z,19.00
2018-06-17T08:42:55.394Z,18.60
2018-06-17T08:45:23.370Z,18.40
2018-06-17T08:47:51.151Z,18.30
2018-06-17T08:50:19.011Z,18.20
2018-06-17T08:52:47.485Z,18.10
2018-06-17T08:55:16.505Z,18.30
2018-06-17T08:57:44.300Z,18.50
2018-06-17T09:00:12.180Z,18.40
2018-06-17T09:02:39.970Z,18.30
2018-06-17T09:05:07.812Z,18.20
2018-06-17T09:07:35.664Z,18.10
2018-06-17T09:10:03.585Z,17.80
2018-06-17T09:12:31.420Z,17.80
2018-06-17T09:14:59.224Z,17.80
2018-06-17T09:17:27.120Z,17.90
2018-06-17T09:19:54.965Z,17.90
2018-06-17T09:22:22.767Z,17.90
2018-06-17T09:25:00.897Z,17.90
2018-06-17T09:27:28.848Z,17.80
2018-06-17T09:30:06.384Z,17.90
2018-06-17T09:32:34.360Z,17.90
2018-06-17T09:35:02.400Z,18.10
2018-06-17T09:37:30.423Z,18.30
2018-06-17T09:39:58.473Z,18.50
2018-06-17T09:42:35.081Z,18.50
2018-06-17T09:45:03.066Z,18.50
2018-06-17T09:47:31.235Z,18.30
2018-06-17T09:49:59.243Z,18.10
2018-06-17T09:52:27.435Z,18.00
2018-06-17T09:54:55.450Z,17.90
2018-06-17T09:57:23.595Z,17.80
2018-06-17T09:59:51.755Z,17.70
2018-06-17T10:02:20.823Z,17.70
2018-06-17T10:04:48.824Z,17.70
2018-06-17T10:07:17.954Z,17.70
2018-06-17T10:09:56.843Z,17.60
2018-06-17T10:12:27.891Z,17.70
2018-06-17T10:15:03.982Z,17.70
2018-06-17T10:17:32.396Z,17.70
2018-06-17T10:20:02.457Z,17.70
2018-06-17T10:22:30.434Z,17.80
2018-06-17T10:24:58.439Z,17.90
2018-06-17T10:27:26.364Z,18.10
2018-06-17T10:29:54.434Z,18.50
2018-06-17T10:32:22.426Z,18.70
2018-06-17T10:34:51.251Z,18.90
2018-06-17T10:37:19.333Z,19.40
2018-06-17T10:39:47.282Z,19.80
2018-06-17T10:42:16.398Z,19.70
2018-06-17T10:44:53.447Z,19.70
2018-06-17T10:47:21.434Z,19.50
2018-06-17T10:49:49.515Z,19.40
2018-06-17T10:52:17.695Z,19.50
2018-06-17T10:54:48.494Z,19.30
2018-06-17T10:57:16.516Z,19.30
2018-06-17T10:59:44.688Z,19.30
2018-06-17T11:02:13.065Z,19.30
2018-06-17T11:04:41.118Z,19.50
2018-06-17T11:07:09.170Z,19.60
2018-06-17T11:13:12.415Z,19.90
2018-06-17T11:15:44.011Z,20.50
2018-06-17T11:18:39.184Z,21.00
2018-06-17T11:21:07.287Z,21.30
2018-06-17T11:23:36.283Z,21.00
2018-06-17T11:26:04.245Z,20.70
2018-06-17T11:28:32.236Z,20.80
2018-06-17T11:31:00.174Z,20.80
2018-06-17T11:33:28.163Z,21.30
2018-06-17T11:36:01.138Z,21.60
2018-06-17T11:38:29.323Z,21.80
2018-06-17T11:40:57.230Z,21.60
2018-06-17T11:43:25.148Z,21.40
2018-06-17T11:46:01.527Z,20.90
2018-06-17T11:48:42.841Z,20.70
2018-06-17T11:51:23.315Z,20.20
2018-06-17T11:53:51.236Z,20.40
2018-06-17T11:56:23.429Z,20.50
2018-06-17T11:58:51.325Z,20.80
2018-06-17T12:01:19.338Z,21.10
2018-06-17T12:03:47.286Z,21.20
2018-06-17T12:06:15.162Z,21.30
2018-06-17T12:08:50.629Z,21.40
2018-06-17T12:11:39.007Z,22.00
2018-06-17T12:14:07.085Z,21.80
2018-06-17T12:16:34.998Z,21.00
2018-06-17T12:19:03.369Z,20.40
2018-06-17T12:21:31.360Z,19.90
2018-06-17T12:23:59.281Z,19.80
2018-06-17T12:26:27.552Z,19.60
2018-06-17T12:28:55.521Z,19.50
2018-06-17T12:31:23.529Z,19.60
2018-06-17T12:33:51.664Z,19.30
2018-06-17T12:36:34.068Z,19.20
2018-06-17T12:39:28.051Z,19.30
2018-06-17T12:41:55.996Z,19.50
2018-06-17T12:48:01.627Z,19.70
2018-06-17T12:54:09.560Z,19.10
2018-06-17T12:56:37.462Z,19.10
2018-06-17T12:59:20.225Z,19.20
2018-06-17T13:01:48.217Z,19.40
2018-06-17T13:04:16.154Z,19.40
2018-06-17T13:06:44.060Z,19.20
2018-06-17T13:09:12.239Z,19.00
2018-06-17T13:11:40.253Z,18.90
2018-06-17T13:14:08.652Z,19.00
2018-06-17T13:19:02.517Z,19.40
2018-06-17T13:21:30.500Z,19.90
2018-06-17T13:24:06.447Z,20.30
2018-06-17T13:26:34.381Z,20.90
2018-06-17T13:29:02.450Z,21.00
2018-06-17T13:31:30.634Z,20.60
2018-06-17T13:33:58.717Z,20.20
2018-06-17T13:36:26.773Z,19.70
2018-06-17T13:38:54.761Z,19.30
2018-06-17T13:41:22.871Z,18.90
2018-06-17T13:43:51.173Z,18.30
2018-06-17T13:46:55.899Z,18.00
2018-06-17T13:49:23.685Z,17.80
2018-06-17T13:51:51.500Z,17.70
2018-06-17T13:54:19.284Z,17.70
2018-06-17T13:56:47.107Z,17.90
2018-06-17T13:59:14.949Z,18.00
2018-06-17T14:01:42.695Z,18.10
2018-06-17T14:04:10.534Z,18.50
2018-06-17T14:06:38.294Z,19.30
2018-06-17T14:09:07.705Z,20.60
2018-06-17T14:11:35.503Z,21.70
2018-06-17T14:14:03.498Z,22.10
2018-06-17T14:16:31.272Z,22.20
2018-06-17T14:18:59.066Z,22.20
2018-06-17T14:21:26.863Z,22.60
2018-06-17T14:23:54.759Z,23.30
2018-06-17T14:26:22.558Z,23.60
2018-06-17T14:28:50.375Z,23.60
2018-06-17T14:31:18.196Z,23.30
2018-06-17T14:33:45.949Z,22.70
2018-06-17T14:36:13.742Z,22.50
2018-06-17T14:38:41.528Z,22.10
2018-06-17T14:41:15.016Z,21.30
2018-06-17T14:43:48.510Z,20.50
2018-06-17T14:46:21.927Z,20.00
2018-06-17T14:48:55.340Z,19.80
2018-06-17T14:51:28.778Z,19.70
2018-06-17T14:53:56.531Z,19.60
2018-06-17T14:56:24.265Z,19.40
2018-06-17T14:58:52.607Z,19.20
2018-06-17T15:01:20.416Z,19.10
2018-06-17T15:03:48.217Z,19.10
2018-06-17T15:06:16.030Z,19.10
2018-06-17T15:08:44.371Z,19.10
2018-06-17T15:11:12.293Z,19.10
2018-06-17T15:13:40.041Z,19.10
2018-06-17T15:16:07.836Z,19.30
2018-06-17T15:18:35.574Z,19.50
2018-06-17T15:21:03.341Z,20.00
2018-06-17T15:23:31.189Z,20.50
2018-06-17T15:25:58.993Z,21.00
2018-06-17T15:28:26.749Z,21.50
2018-06-17T15:30:59.070Z,21.80
2018-06-17T15:33:32.290Z,21.50
2018-06-17T15:36:05.580Z,21.20
2018-06-17T15:38:38.877Z,21.10
2018-06-17T15:41:12.329Z,21.20
2018-06-17T15:43:40.126Z,21.20
2018-06-17T15:46:07.941Z,20.90
2018-06-17T15:48:35.761Z,20.80
2018-06-17T15:51:03.488Z,20.60
2018-06-17T15:53:31.264Z,20.40
2018-06-17T15:55:59.024Z,20.10
2018-06-17T15:58:26.813Z,20.10
2018-06-17T16:00:54.615Z,19.80
2018-06-17T16:03:22.430Z,19.70
2018-06-17T16:05:50.973Z,19.60
2018-06-17T16:08:18.720Z,19.70
2018-06-17T16:10:46.499Z,19.70
2018-06-17T16:13:26.989Z,19.80
2018-06-17T16:16:00.404Z,20.00
2018-06-17T16:18:33.830Z,20.10
2018-06-17T16:21:02.003Z,20.20
2018-06-17T16:23:30.761Z,20.10
2018-06-17T16:25:58.751Z,20.00
2018-06-17T16:28:26.490Z,19.80
2018-06-17T16:30:54.283Z,19.70
2018-06-17T16:33:22.069Z,19.70
2018-06-17T16:35:49.816Z,19.70
2018-06-17T16:38:17.528Z,19.70
2018-06-17T16:40:45.318Z,19.80
2018-06-17T16:43:13.105Z,19.70
2018-06-17T16:45:40.838Z,19.70
2018-06-17T16:48:08.584Z,19.60
2018-06-17T16:50:36.381Z,19.60
2018-06-17T16:53:09.770Z,19.70
2018-06-17T16:57:48.246Z,19.80
2018-06-17T17:00:20.510Z,19.80
2018-06-17T17:02:49.346Z,19.60
2018-06-17T17:05:17.214Z,19.50
2018-06-17T17:07:45.111Z,19.60
2018-06-17T17:10:13.131Z,19.60
2018-06-17T17:12:40.936Z,19.50
2018-06-17T17:15:08.744Z,19.50
2018-06-17T17:17:36.622Z,19.40
2018-06-17T17:20:04.567Z,19.50
2018-06-17T17:25:13.319Z,19.60
2018-06-17T17:27:41.150Z,19.70
2018-06-17T17:30:08.964Z,19.50
2018-06-17T17:32:42.401Z,19.30
2018-06-17T17:35:15.775Z,19.30
2018-06-17T17:37:49.224Z,19.20
2018-06-17T17:40:22.693Z,19.10
2018-06-17T17:42:50.456Z,19.10
2018-06-17T17:45:22.209Z,19.00
2018-06-17T17:47:50.097Z,18.90
2018-06-17T17:50:17.855Z,18.70
2018-06-17T17:52:45.662Z,18.70
2018-06-17T17:55:13.542Z,18.70
2018-06-17T17:57:41.371Z,18.60
2018-06-17T18:00:09.692Z,18.50
2018-06-17T18:02:37.510Z,18.30
2018-06-17T18:05:05.271Z,18.20
2018-06-17T18:07:33.076Z,18.20
2018-06-17T18:10:00.922Z,18.20
2018-06-17T18:12:28.701Z,18.20
2018-06-17T18:14:56.459Z,18.20
2018-06-17T18:17:24.208Z,18.20
2018-06-17T18:19:51.951Z,18.30
2018-06-17T18:22:19.745Z,18.30
2018-06-17T18:24:53.218Z,18.40
2018-06-17T18:27:26.526Z,18.50
2018-06-17T18:32:02.974Z,18.40
2018-06-17T18:34:36.311Z,18.40
2018-06-17T18:37:04.080Z,18.40
2018-06-17T18:39:32.011Z,18.40
2018-06-17T18:41:59.773Z,18.40
2018-06-17T18:44:27.537Z,18.40
2018-06-17T18:46:55.347Z,18.30
2018-06-17T18:49:23.213Z,18.20
2018-06-17T18:51:51.014Z,18.20
2018-06-17T18:54:18.784Z,18.10
2018-06-17T18:56:46.570Z,18.10
2018-06-17T18:59:14.391Z,18.10
2018-06-17T19:01:42.161Z,18.00
2018-06-17T19:04:09.981Z,17.90
2018-06-17T19:06:37.782Z,17.90
2018-06-17T19:09:13.001Z,17.80
2018-06-17T19:11:46.768Z,17.80
2018-06-17T19:14:20.174Z,17.70
2018-06-17T19:16:53.558Z,17.60
2018-06-17T19:19:21.771Z,17.50
2018-06-17T19:21:49.591Z,17.50
2018-06-17T19:24:17.388Z,17.50
2018-06-17T19:26:45.190Z,17.50
2018-06-17T19:29:13.007Z,17.40
2018-06-17T19:31:40.803Z,17.40
2018-06-17T19:34:08.638Z,17.40
2018-06-17T19:36:36.609Z,17.30
2018-06-17T19:39:06.856Z,17.30
2018-06-17T19:41:34.653Z,17.20
2018-06-17T19:44:02.515Z,17.20
2018-06-17T19:46:30.337Z,17.20
2018-06-17T19:48:58.158Z,17.20
2018-06-17T19:51:31.584Z,17.20
2018-06-17T19:54:04.965Z,17.20
2018-06-17T19:56:38.324Z,17.20
2018-06-17T19:59:11.710Z,17.10
2018-06-17T20:01:39.504Z,17.10
2018-06-17T20:04:07.260Z,17.10
2018-06-17T20:06:35.049Z,17.00
2018-06-17T20:09:03.648Z,17.00
2018-06-17T20:11:31.390Z,17.00
2018-06-17T20:13:59.208Z,17.00
2018-06-17T20:16:26.889Z,17.00
2018-06-17T20:18:54.615Z,17.00
2018-06-17T20:21:22.418Z,16.90
2018-06-17T20:23:50.137Z,17.00
2018-06-17T20:26:17.865Z,17.00
2018-06-17T20:28:45.604Z,16.90
2018-06-17T20:31:13.352Z,16.80
2018-06-17T20:33:46.627Z,16.60
2018-06-17T20:36:20.010Z,16.50
2018-06-17T20:38:53.418Z,16.40
2018-06-17T20:41:26.740Z,16.40
2018-06-17T20:43:54.884Z,16.30
2018-06-17T20:46:22.652Z,16.30
2018-06-17T20:48:50.511Z,16.20
2018-06-17T20:51:19.576Z,16.30
2018-06-17T20:53:47.685Z,16.30
2018-06-17T20:56:15.507Z,16.20
2018-06-17T20:58:44.042Z,16.20
2018-06-17T21:01:19.570Z,16.20
2018-06-17T21:03:47.346Z,16.20
2018-06-17T21:06:15.081Z,16.20
2018-06-17T21:08:42.865Z,16.20
2018-06-17T21:11:10.591Z,16.20
2018-06-17T21:13:38.325Z,16.20
2018-06-17T21:16:06.053Z,16.20
2018-06-17T21:18:39.384Z,16.20
2018-06-17T21:21:12.752Z,16.20
2018-06-17T21:23:46.014Z,16.20
2018-06-17T21:26:19.398Z,16.20
2018-06-17T21:28:47.144Z,16.20
2018-06-17T21:31:14.877Z,16.20
2018-06-17T21:33:42.647Z,16.20
2018-06-17T21:36:10.368Z,16.20
2018-06-17T21:38:38.139Z,16.30
2018-06-17T21:41:06.069Z,16.30
2018-06-17T21:43:33.849Z,16.30
2018-06-17T21:46:01.644Z,16.30
2018-06-17T21:48:29.365Z,16.30
2018-06-17T21:50:57.116Z,16.30
2018-06-17T21:53:24.848Z,16.30
2018-06-17T21:55:52.643Z,16.30
2018-06-17T21:58:26.101Z,16.30
2018-06-17T22:00:53.913Z,16.30
2018-06-17T22:03:21.646Z,16.30
2018-06-17T22:05:49.467Z,16.30
2018-06-17T22:08:22.721Z,16.30
2018-06-17T22:10:56.063Z,16.30
2018-06-17T22:13:23.826Z,16.30
2018-06-17T22:15:57.238Z,16.30
2018-06-17T22:18:24.996Z,16.30
2018-06-17T22:20:52.696Z,16.30
2018-06-17T22:23:20.448Z,16.20
2018-06-17T22:25:48.205Z,16.20
2018-06-17T22:28:15.951Z,16.20
2018-06-17T22:30:43.824Z,16.20
2018-06-17T22:33:11.653Z,16.20
2018-06-17T22:35:39.454Z,16.20
2018-06-17T22:38:07.199Z,16.10
2018-06-17T22:40:34.981Z,16.20
2018-06-17T22:43:02.743Z,16.10
2018-06-17T22:45:30.635Z,16.20
2018-06-17T22:47:59.155Z,16.20
2018-06-17T22:50:27.121Z,16.20
2018-06-17T22:53:06.035Z,16.20
2018-06-17T22:55:33.779Z,16.20
2018-06-17T22:58:07.189Z,16.20
2018-06-17T23:00:40.435Z,16.20
2018-06-17T23:03:13.824Z,16.20
2018-06-17T23:05:47.236Z,16.20
2018-06-17T23:08:20.740Z,16.20
2018-06-17T23:10:48.475Z,16.20
2018-06-17T23:13:16.349Z,16.20
2018-06-17T23:15:44.108Z,16.20
2018-06-17T23:18:11.899Z,16.30
2018-06-17T23:20:39.615Z,16.30
2018-06-17T23:23:07.377Z,16.30
2018-06-17T23:25:35.116Z,16.30
2018-06-17T23:28:02.886Z,16.30
2018-06-17T23:30:30.692Z,16.30
2018-06-17T23:32:58.453Z,16.30
2018-06-17T23:35:26.164Z,16.30
2018-06-17T23:37:53.902Z,16.30
2018-06-17T23:40:21.628Z,16.30
2018-06-17T23:42:49.301Z,16.30
2018-06-17T23:45:17.026Z,16.30
2018-06-17T23:47:50.429Z,16.30
2018-06-17T23:50:23.674Z,16.30
2018-06-17T23:52:56.958Z,16.30
2018-06-17T23:55:30.285Z,16.30
2018-06-17T23:57:58.047Z,16.20
